Time;durP1;ratioP1;P1;durP2;ratioP2;P2;SDS_P1;SDS_P2;PMS_P1;PMS_P2;Temp;Humidity;BMP_temperature;BMP_pressure;BME280_temperature;BME280_humidity;BME280_pressure;Samples;Min_cycle;Max_cycle;Signal;HPM_P1;HPM_P2
2022/11/03 00:02:24;;;;;;;2.92;2.75;;;;;;;;;;5191032;28;20022;-67
2022/11/03 00:04:55;;;;;;;8.15;4.63;;;;;;;;;;5190483;28;20022;-67
2022/11/03 00:07:25;;;;;;;5.28;4.93;;;;;;;;;;5190652;28;20458;-66
2022/11/03 00:09:55;;;;;;;12.07;6.07;;;;;;;;;;5190366;28;20032;-68
2022/11/03 00:12:25;;;;;;;11.27;5.63;;;;;;;;;;5208571;28;20032;-68
2022/11/03 00:14:56;;;;;;;5.20;4.78;;;;;;;;;;5190356;28;20025;-67
2022/11/03 00:17:26;;;;;;;7.10;4.90;;;;;;;;;;5190615;28;20033;-66
2022/11/03 00:19:57;;;;;;;5.45;5.03;;;;;;;;;;5190473;28;20060;-67
2022/11/03 00:22:28;;;;;;;9.45;6.05;;;;;;;;;;5190532;28;20025;-67
2022/11/03 00:24:59;;;;;;;10.70;5.63;;;;;;;;;;5190181;28;20017;-67
2022/11/03 00:27:29;;;;;;;6.28;5.07;;;;;;;;;;5190174;28;20036;-66
2022/11/03 00:29:59;;;;;;;9.27;5.03;;;;;;;;;;5190229;28;20389;-66
2022/11/03 00:32:29;;;;;;;9.50;4.95;;;;;;;;;;5190395;28;20025;-69
2022/11/03 00:35:00;;;;;;;7.43;4.05;;;;;;;;;;5190052;28;20485;-66
2022/11/03 00:37:30;;;;;;;13.05;4.78;;;;;;;;;;5190096;28;20025;-70
2022/11/03 00:40:00;;;;;;;7.40;4.45;;;;;;;;;;5189751;28;20533;-68
2022/11/03 00:42:33;;;;;;;5.35;4.00;;;;;;;;;;5189746;28;20052;-67
2022/11/03 00:45:04;;;;;;;16.95;7.25;;;;;;;;;;5189672;28;20071;-66
2022/11/03 00:48:28;;;;;;;14.75;5.80;;;;;;;;;;5190111;28;20466;-66
2022/11/03 00:50:24;;;;;;;6.85;5.15;;;;;;;;;;5207171;28;20087;-66
2022/11/03 00:52:55;;;;;;;5.55;4.65;;;;;;;;;;5190118;28;20045;-66
2022/11/03 00:55:25;;;;;;;4.90;4.50;;;;;;;;;;5189444;28;20075;-66
2022/11/03 00:57:55;;;;;;;6.22;5.50;;;;;;;;;;5189853;28;20405;-69
2022/11/03 01:00:25;;;;;;;28.80;4.40;;;;;;;;;;5207457;28;20045;-69
2022/11/03 01:02:57;;;;;;;9.27;5.70;;;;;;;;;;5189457;28;20498;-66
2022/11/03 01:08:16;;;;;;;6.05;4.47;;;;;;;;;;5207395;28;20120;-67
2022/11/03 01:13:38;;;;;;;11.93;4.80;;;;;;;;;;5206936;28;20036;-66
2022/11/03 01:16:08;;;;;;;5.03;3.97;;;;;;;;;;5189250;28;20052;-66
2022/11/03 01:18:38;;;;;;;5.63;5.13;;;;;;;;;;5189245;28;20025;-68
2022/11/03 01:21:09;;;;;;;7.32;4.25;;;;;;;;;;5189002;28;20024;-68
2022/11/03 01:23:39;;;;;;;7.05;4.70;;;;;;;;;;5206853;28;20087;-66
2022/11/03 01:26:10;;;;;;;11.38;4.35;;;;;;;;;;5188906;28;20017;-66
2022/11/03 01:28:42;;;;;;;7.13;5.38;;;;;;;;;;5189260;28;20083;-66
2022/11/03 01:31:17;;;;;;;10.35;5.28;;;;;;;;;;5189023;28;20339;-66
2022/11/03 01:33:48;;;;;;;10.07;5.25;;;;;;;;;;5188354;28;20029;-67
2022/11/03 01:36:19;;;;;;;4.40;3.60;;;;;;;;;;5188991;28;20075;-66
2022/11/03 01:38:49;;;;;;;11.20;5.43;;;;;;;;;;5188857;28;20029;-68
2022/11/03 01:41:20;;;;;;;11.70;5.15;;;;;;;;;;5188779;28;20021;-66
2022/11/03 01:44:11;;;;;;;6.50;5.78;;;;;;;;;;5188387;28;20067;-66
2022/11/03 01:47:07;;;;;;;4.20;3.97;;;;;;;;;;5206412;28;20021;-67
2022/11/03 01:49:41;;;;;;;6.13;4.53;;;;;;;;;;5184113;28;20083;-67
2022/11/03 01:52:32;;;;;;;5.95;4.80;;;;;;;;;;5229637;23;20025;-80
2022/11/03 01:55:05;;;;;;;4.65;3.35;;;;;;;;;;5216228;28;20047;-81
2022/11/03 01:57:41;;;;;;;23.48;6.55;;;;;;;;;;5230863;28;20343;-81
2022/11/03 02:00:12;;;;;;;9.20;5.28;;;;;;;;;;5230398;28;20021;-81
2022/11/03 02:02:42;;;;;;;8.50;5.63;;;;;;;;;;5232289;28;20402;-80
2022/11/03 02:05:14;;;;;;;9.88;5.30;;;;;;;;;;5212150;28;20017;-80
2022/11/03 02:07:48;;;;;;;8.27;4.60;;;;;;;;;;5213145;28;20487;-81
2022/11/03 02:10:19;;;;;;;7.20;4.55;;;;;;;;;;5213103;28;20025;-81
2022/11/03 02:12:49;;;;;;;5.07;4.65;;;;;;;;;;5231535;28;20086;-81
2022/11/03 02:15:20;;;;;;;11.33;4.50;;;;;;;;;;5229094;28;20468;-81
2022/11/03 02:17:52;;;;;;;6.55;3.78;;;;;;;;;;5230857;28;20718;-80
2022/11/03 02:20:27;;;;;;;6.78;4.63;;;;;;;;;;5232979;28;20013;-81
2022/11/03 02:23:15;;;;;;;6.95;3.42;;;;;;;;;;5233288;28;20017;-81
2022/11/03 02:25:50;;;;;;;10.45;4.88;;;;;;;;;;5232757;28;20399;-81
2022/11/03 02:28:22;;;;;;;6.70;4.40;;;;;;;;;;5211297;28;20017;-79
2022/11/03 02:31:07;;;;;;;6.93;4.25;;;;;;;;;;5228262;28;20047;-79
2022/11/03 02:33:56;;;;;;;5.28;4.82;;;;;;;;;;5226639;28;20017;-80
2022/11/03 02:36:29;;;;;;;10.32;4.38;;;;;;;;;;5228444;28;20124;-80
2022/11/03 02:39:18;;;;;;;7.10;3.97;;;;;;;;;;5229941;28;20479;-78
2022/11/03 02:41:56;;;;;;;5.10;4.63;;;;;;;;;;5229656;28;20017;-80
2022/11/03 02:44:27;;;;;;;6.72;5.72;;;;;;;;;;5227023;28;20040;-80
2022/11/03 02:46:59;;;;;;;7.45;5.43;;;;;;;;;;5228971;28;20100;-80
2022/11/03 02:49:30;;;;;;;11.75;4.85;;;;;;;;;;5229072;28;20025;-79
2022/11/03 02:52:04;;;;;;;9.18;4.60;;;;;;;;;;5228109;28;20162;-79
2022/11/03 02:54:37;;;;;;;6.40;3.85;;;;;;;;;;5226054;28;20039;-79
2022/11/03 02:57:11;;;;;;;9.85;5.22;;;;;;;;;;5227350;28;20017;-79
2022/11/03 02:59:48;;;;;;;6.95;4.80;;;;;;;;;;5229885;28;20069;-80
2022/11/03 03:02:22;;;;;;;8.95;4.90;;;;;;;;;;5215191;28;20036;-79
2022/11/03 03:04:55;;;;;;;13.57;6.10;;;;;;;;;;5232221;28;20017;-79
2022/11/03 03:07:26;;;;;;;12.18;4.82;;;;;;;;;;5234124;28;20020;-80
2022/11/03 03:10:01;;;;;;;7.03;4.33;;;;;;;;;;5232967;28;20025;-80
2022/11/03 03:12:33;;;;;;;4.72;4.20;;;;;;;;;;5233966;28;20259;-80
2022/11/03 03:15:04;;;;;;;13.27;5.47;;;;;;;;;;5232527;28;20207;-81
2022/11/03 03:17:44;;;;;;;9.90;3.78;;;;;;;;;;5215716;28;20021;-80
2022/11/03 03:20:27;;;;;;;12.38;6.00;;;;;;;;;;5234393;28;20474;-81
2022/11/03 03:22:59;;;;;;;7.07;4.00;;;;;;;;;;5233645;28;20024;-81
2022/11/03 03:25:39;;;;;;;12.23;5.20;;;;;;;;;;5233666;28;20032;-80
2022/11/03 03:28:14;;;;;;;4.95;4.25;;;;;;;;;;5239053;28;20025;-80
2022/11/03 03:30:45;;;;;;;11.90;6.03;;;;;;;;;;5239576;28;20372;-80
2022/11/03 03:33:16;;;;;;;9.52;4.10;;;;;;;;;;5220292;28;20112;-81
2022/11/03 03:35:47;;;;;;;5.05;4.57;;;;;;;;;;5238575;28;20049;-80
2022/11/03 03:38:20;;;;;;;9.77;6.25;;;;;;;;;;5238881;28;20040;-79
2022/11/03 03:40:52;;;;;;;7.18;4.68;;;;;;;;;;5221612;28;20045;-81
2022/11/03 03:43:24;;;;;;;5.78;5.07;;;;;;;;;;5238254;28;20017;-80
2022/11/03 03:45:57;;;;;;;6.93;3.83;;;;;;;;;;5240892;28;20013;-80
2022/11/03 03:48:27;;;;;;;10.52;4.45;;;;;;;;;;5240725;28;20021;-80
2022/11/03 03:50:58;;;;;;;5.93;5.13;;;;;;;;;;5243987;28;20048;-79
2022/11/03 03:53:29;;;;;;;6.47;4.05;;;;;;;;;;5242205;28;20784;-80
2022/11/03 03:55:59;;;;;;;5.13;4.40;;;;;;;;;;5245331;28;20013;-80
2022/11/03 03:58:30;;;;;;;5.78;5.38;;;;;;;;;;5245422;28;20069;-80
2022/11/03 04:01:00;;;;;;;7.85;5.30;;;;;;;;;;5243818;28;20111;-81
2022/11/03 04:03:30;;;;;;;7.00;4.80;;;;;;;;;;5243077;28;20881;-80
2022/11/03 04:06:01;;;;;;;9.32;4.97;;;;;;;;;;5244611;28;20267;-80
2022/11/03 04:08:31;;;;;;;5.53;4.93;;;;;;;;;;5226104;28;20084;-80
2022/11/03 04:22:17;;;;;;;7.47;4.67;;;;;;;;;;5235582;28;20043;-81
2022/11/03 04:24:49;;;;;;;18.60;7.15;;;;;;;;;;5216201;28;20009;-80
2022/11/03 04:27:36;;;;;;;6.85;3.67;;;;;;;;;;5217793;28;20021;-80
2022/11/03 04:30:16;;;;;;;8.00;3.60;;;;;;;;;;5216205;28;20032;-81
2022/11/03 04:32:48;;;;;;;4.13;3.83;;;;;;;;;;5217415;28;20052;-80
2022/11/03 04:35:18;;;;;;;4.55;4.25;;;;;;;;;;5234055;28;20019;-80
2022/11/03 04:38:00;;;;;;;5.07;4.68;;;;;;;;;;5217684;28;20120;-80
2022/11/03 04:40:30;;;;;;;4.88;4.50;;;;;;;;;;5235440;28;20021;-80
2022/11/03 04:43:03;;;;;;;5.35;4.18;;;;;;;;;;5235483;28;20017;-81
2022/11/03 04:45:33;;;;;;;8.30;4.97;;;;;;;;;;5234607;28;20094;-80
2022/11/03 04:48:13;;;;;;;9.18;4.35;;;;;;;;;;5235692;28;20037;-80
2022/11/03 04:50:45;;;;;;;21.25;4.90;;;;;;;;;;5216950;28;20059;-80
2022/11/03 04:53:16;;;;;;;3.55;3.38;;;;;;;;;;5234253;28;20486;-81
2022/11/03 04:55:48;;;;;;;7.85;3.78;;;;;;;;;;5215900;28;20044;-81
2022/11/03 04:58:20;;;;;;;14.25;5.78;;;;;;;;;;5215960;28;20017;-80
2022/11/03 05:00:51;;;;;;;7.53;5.72;;;;;;;;;;5235195;28;20024;-82
2022/11/03 05:03:26;;;;;;;6.53;4.97;;;;;;;;;;5233805;28;20096;-82
2022/11/03 05:05:56;;;;;;;8.23;3.92;;;;;;;;;;5216140;28;20048;-82
2022/11/03 05:08:26;;;;;;;15.63;5.05;;;;;;;;;;5234103;28;20021;-81
2022/11/03 05:10:58;;;;;;;5.70;5.30;;;;;;;;;;5234029;28;20431;-81
2022/11/03 05:13:28;;;;;;;10.02;5.03;;;;;;;;;;5233382;28;20274;-82
2022/11/03 05:16:03;;;;;;;4.40;3.55;;;;;;;;;;5233048;28;20021;-80
2022/11/03 05:18:35;;;;;;;7.82;5.75;;;;;;;;;;5232690;28;20045;-81
2022/11/03 05:21:14;;;;;;;14.30;4.88;;;;;;;;;;5215031;28;20048;-82
2022/11/03 05:23:50;;;;;;;5.45;4.93;;;;;;;;;;5232573;28;20029;-82
2022/11/03 05:26:23;;;;;;;6.28;5.70;;;;;;;;;;5233423;28;20025;-80
2022/11/03 05:29:01;;;;;;;7.55;4.10;;;;;;;;;;5215457;28;20052;-82
2022/11/03 05:31:33;;;;;;;13.90;5.35;;;;;;;;;;5214914;28;20031;-82
2022/11/03 05:34:19;;;;;;;5.03;4.60;;;;;;;;;;5232538;28;20017;-81
2022/11/03 05:36:49;;;;;;;10.13;5.50;;;;;;;;;;5240385;28;20119;-81
2022/11/03 05:39:33;;;;;;;10.70;4.23;;;;;;;;;;5234888;28;20025;-81
2022/11/03 05:42:21;;;;;;;6.03;4.55;;;;;;;;;;5233574;28;20267;-81
2022/11/03 05:44:52;;;;;;;7.80;5.28;;;;;;;;;;5232831;28;20070;-81
2022/11/03 05:47:22;;;;;;;8.52;4.22;;;;;;;;;;5233358;28;20025;-82
2022/11/03 05:49:55;;;;;;;8.97;5.47;;;;;;;;;;5232340;28;20081;-82
2022/11/03 05:52:26;;;;;;;7.38;4.47;;;;;;;;;;5214200;28;20099;-80
2022/11/03 05:54:57;;;;;;;11.93;4.13;;;;;;;;;;5230228;28;20139;-80
2022/11/03 05:57:28;;;;;;;12.25;5.25;;;;;;;;;;5230786;28;20020;-81
2022/11/03 05:59:59;;;;;;;5.80;5.30;;;;;;;;;;5230447;28;20045;-81
2022/11/03 06:02:36;;;;;;;13.02;5.40;;;;;;;;;;5230214;28;20024;-81
2022/11/03 06:05:25;;;;;;;6.60;4.43;;;;;;;;;;5228272;28;20663;-80
2022/11/03 06:07:58;;;;;;;13.05;5.68;;;;;;;;;;5229623;28;20021;-81
2022/11/03 06:10:30;;;;;;;5.35;3.85;;;;;;;;;;5210851;28;20116;-80
2022/11/03 06:13:03;;;;;;;6.32;5.63;;;;;;;;;;5231065;28;20017;-82
2022/11/03 06:15:34;;;;;;;10.63;4.95;;;;;;;;;;5228867;28;20383;-82
2022/11/03 06:18:15;;;;;;;8.48;5.85;;;;;;;;;;5228578;28;20044;-82
2022/11/03 06:20:49;;;;;;;3.83;3.63;;;;;;;;;;5228801;28;20071;-82
2022/11/03 06:23:20;;;;;;;6.63;4.15;;;;;;;;;;5228103;28;20032;-81
2022/11/03 06:25:52;;;;;;;16.33;5.68;;;;;;;;;;5228221;28;20382;-81
2022/11/03 06:28:28;;;;;;;7.35;5.03;;;;;;;;;;5229006;28;20021;-81
2022/11/03 06:30:59;;;;;;;4.78;4.25;;;;;;;;;;5228564;28;20091;-81
2022/11/03 06:33:33;;;;;;;8.43;4.28;;;;;;;;;;5222783;28;20021;-80
2022/11/03 06:36:23;;;;;;;7.40;3.85;;;;;;;;;;5225553;28;20344;-81
2022/11/03 06:39:00;;;;;;;11.07;4.30;;;;;;;;;;5225040;28;20347;-81
2022/11/03 06:41:31;;;;;;;5.32;4.80;;;;;;;;;;5225649;28;20024;-80
2022/11/03 06:44:14;;;;;;;5.93;3.60;;;;;;;;;;5227027;28;20017;-79
2022/11/03 06:46:45;;;;;;;4.70;4.30;;;;;;;;;;5211293;28;20386;-80
2022/11/03 06:49:27;;;;;;;9.57;5.78;;;;;;;;;;5209076;28;20031;-79
2022/11/03 06:51:58;;;;;;;12.88;5.07;;;;;;;;;;5226813;28;20029;-79
2022/11/03 06:54:28;;;;;;;7.35;3.90;;;;;;;;;;5227047;28;20028;-79
2022/11/03 06:56:58;;;;;;;5.77;4.23;;;;;;;;;;5228586;28;20016;-79
2022/11/03 06:59:28;;;;;;;3.65;3.47;;;;;;;;;;5229120;28;20357;-80
2022/11/03 07:01:59;;;;;;;7.33;4.67;;;;;;;;;;5233356;28;20013;-79
2022/11/03 07:04:29;;;;;;;11.45;4.72;;;;;;;;;;5232130;28;20255;-80
2022/11/03 07:07:01;;;;;;;5.80;4.47;;;;;;;;;;5233591;28;20017;-79
2022/11/03 07:09:31;;;;;;;5.15;4.45;;;;;;;;;;5214949;28;20029;-79
2022/11/03 07:12:02;;;;;;;8.73;4.73;;;;;;;;;;5234186;28;20025;-80
2022/11/03 07:14:32;;;;;;;7.60;4.57;;;;;;;;;;5232908;28;20274;-79
2022/11/03 07:17:04;;;;;;;8.27;4.65;;;;;;;;;;5234147;28;20151;-79
2022/11/03 07:19:39;;;;;;;15.57;5.15;;;;;;;;;;5233538;28;20224;-81
2022/11/03 07:22:09;;;;;;;5.07;4.20;;;;;;;;;;5233903;28;20040;-81
2022/11/03 07:24:40;;;;;;;9.37;4.67;;;;;;;;;;5233551;28;20017;-81
2022/11/03 07:27:23;;;;;;;5.82;3.38;;;;;;;;;;5232803;28;20017;-80
2022/11/03 07:29:56;;;;;;;8.45;5.20;;;;;;;;;;5216338;28;20021;-80
2022/11/03 07:32:31;;;;;;;9.40;5.30;;;;;;;;;;5233438;28;20474;-79
2022/11/03 07:35:11;;;;;;;10.63;5.07;;;;;;;;;;5231444;28;20021;-79
2022/11/03 07:37:50;;;;;;;;;;;;;;;;;;5234225;28;20017;-77
2022/11/03 07:40:24;;;;;;;11.15;4.93;;;;;;;;;;5231660;28;19904;-79
2022/11/03 07:42:56;;;;;;;5.50;5.03;;;;;;;;;;5232083;28;20059;-78
2022/11/03 07:45:29;;;;;;;8.32;4.72;;;;;;;;;;5213685;28;20017;-78
2022/11/03 07:48:20;;;;;;;8.27;3.67;;;;;;;;;;5232294;28;20024;-79
2022/11/03 07:50:51;;;;;;;8.57;4.63;;;;;;;;;;5230666;28;20542;-80
2022/11/03 07:53:24;;;;;;;5.70;4.30;;;;;;;;;;5224602;23;20041;-85
2022/11/03 07:55:55;;;;;;;6.90;5.43;;;;;;;;;;5214974;28;20075;-85
2022/11/03 07:58:33;;;;;;;7.82;4.13;;;;;;;;;;5233089;28;20026;-84
2022/11/03 08:01:23;;;;;;;5.80;4.55;;;;;;;;;;5215518;28;20084;-84
2022/11/03 08:03:56;;;;;;;9.63;6.20;;;;;;;;;;5213133;28;20022;-86
2022/11/03 08:06:26;;;;;;;5.15;4.65;;;;;;;;;;5226343;28;20067;-86
2022/11/03 08:08:56;;;;;;;4.82;3.70;;;;;;;;;;5223390;28;20013;-87
2022/11/03 08:11:26;;;;;;;8.50;5.28;;;;;;;;;;5204429;28;20030;-86
2022/11/03 08:13:57;;;;;;;4.93;3.72;;;;;;;;;;5222290;28;20021;-87
2022/11/03 08:16:27;;;;;;;8.40;4.97;;;;;;;;;;5204578;28;20076;-86
2022/11/03 08:18:57;;;;;;;12.98;4.25;;;;;;;;;;5203624;28;20287;-86
2022/11/03 08:21:28;;;;;;;6.93;4.43;;;;;;;;;;5221880;28;20454;-86
2022/11/03 08:23:58;;;;;;;5.30;4.78;;;;;;;;;;5221785;28;20021;-86
2022/11/03 08:26:28;;;;;;;7.60;3.80;;;;;;;;;;5203925;28;20024;-86
2022/11/03 08:28:58;;;;;;;4.63;4.23;;;;;;;;;;5204070;28;20025;-85
2022/11/03 08:31:29;;;;;;;6.88;3.72;;;;;;;;;;5203119;28;20267;-87
2022/11/03 08:33:59;;;;;;;3.97;3.67;;;;;;;;;;5221024;28;20030;-85
2022/11/03 08:36:29;;;;;;;4.55;4.28;;;;;;;;;;5203908;28;20025;-87
2022/11/03 08:38:59;;;;;;;7.88;5.35;;;;;;;;;;5221867;28;20028;-86
2022/11/03 08:41:30;;;;;;;5.07;4.03;;;;;;;;;;5219601;28;20020;-86
2022/11/03 08:44:00;;;;;;;4.18;3.88;;;;;;;;;;5219332;28;20010;-87
2022/11/03 08:46:31;;;;;;;11.43;5.47;;;;;;;;;;5220617;28;20402;-86
2022/11/03 08:49:01;;;;;;;4.38;3.35;;;;;;;;;;5220921;28;20646;-87
2022/11/03 08:51:32;;;;;;;5.23;3.77;;;;;;;;;;5203354;28;20048;-86
2022/11/03 08:54:02;;;;;;;5.70;4.88;;;;;;;;;;5203043;28;20264;-86
2022/11/03 08:56:32;;;;;;;6.93;3.63;;;;;;;;;;5203352;28;20028;-85
2022/11/03 08:59:03;;;;;;;7.13;4.82;;;;;;;;;;5220833;28;20025;-86
2022/11/03 09:01:33;;;;;;;3.83;3.47;;;;;;;;;;5201871;28;20022;-87
2022/11/03 09:04:03;;;;;;;4.28;3.95;;;;;;;;;;5201110;28;20037;-86
2022/11/03 09:06:33;;;;;;;5.07;4.00;;;;;;;;;;5221487;28;20022;-87
2022/11/03 09:09:04;;;;;;;4.22;3.88;;;;;;;;;;5221515;28;20017;-87
2022/11/03 09:11:34;;;;;;;3.50;3.30;;;;;;;;;;5220454;28;20044;-87
2022/11/03 09:14:04;;;;;;;11.10;4.40;;;;;;;;;;5219514;28;20080;-85
2022/11/03 09:16:34;;;;;;;8.00;3.78;;;;;;;;;;5219646;28;20021;-86
2022/11/03 09:19:05;;;;;;;8.68;4.35;;;;;;;;;;5220362;28;20017;-85
2022/11/03 09:21:35;;;;;;;7.30;4.45;;;;;;;;;;5220577;28;20093;-84
2022/11/03 09:24:06;;;;;;;3.90;3.63;;;;;;;;;;5220017;28;20068;-86
2022/11/03 09:26:37;;;;;;;5.65;3.10;;;;;;;;;;5201968;28;20206;-87
2022/11/03 09:29:07;;;;;;;4.55;3.50;;;;;;;;;;5218854;28;20029;-86
2022/11/03 09:31:37;;;;;;;4.78;4.22;;;;;;;;;;5220509;28;20018;-87
2022/11/03 09:34:08;;;;;;;5.28;3.42;;;;;;;;;;5201931;28;20079;-86
2022/11/03 09:36:38;;;;;;;8.57;5.07;;;;;;;;;;5219818;28;20025;-85
2022/11/03 09:39:08;;;;;;;4.28;3.03;;;;;;;;;;5202326;28;20021;-86
2022/11/03 09:41:39;;;;;;;4.00;3.80;;;;;;;;;;5219329;28;20022;-87
2022/11/03 09:44:10;;;;;;;6.75;4.65;;;;;;;;;;5199910;28;20014;-85
2022/11/03 09:46:40;;;;;;;3.85;3.42;;;;;;;;;;5200130;28;20077;-87
2022/11/03 09:49:14;;;;;;;3.80;3.50;;;;;;;;;;5198769;28;20051;-87
2022/11/03 09:51:44;;;;;;;3.78;3.40;;;;;;;;;;5202622;28;20471;-87
2022/11/03 09:54:15;;;;;;;3.67;3.35;;;;;;;;;;5201868;28;20033;-87
2022/11/03 09:56:46;;;;;;;9.38;4.60;;;;;;;;;;5202449;28;20021;-87
2022/11/03 09:59:17;;;;;;;3.75;3.17;;;;;;;;;;5219782;28;20026;-86
2022/11/03 10:01:52;;;;;;;4.00;3.60;;;;;;;;;;5219422;28;20036;-86
2022/11/03 10:04:25;;;;;;;5.15;3.58;;;;;;;;;;5219983;28;20009;-87
2022/11/03 10:06:56;;;;;;;4.78;3.58;;;;;;;;;;5223025;28;20024;-86
2022/11/03 10:09:27;;;;;;;3.00;2.67;;;;;;;;;;5222687;28;20022;-87
2022/11/03 10:11:58;;;;;;;4.38;4.03;;;;;;;;;;5204954;28;20026;-88
2022/11/03 10:14:28;;;;;;;4.18;3.72;;;;;;;;;;5219011;28;20024;-88
2022/11/03 10:16:59;;;;;;;10.75;3.97;;;;;;;;;;5220245;28;20021;-87
2022/11/03 10:19:29;;;;;;;4.32;3.63;;;;;;;;;;5204404;28;20049;-87
2022/11/03 10:21:59;;;;;;;3.30;3.10;;;;;;;;;;5222812;28;20036;-86
2022/11/03 10:24:30;;;;;;;4.38;3.97;;;;;;;;;;5201287;28;20357;-84
2022/11/03 10:27:00;;;;;;;2.90;2.80;;;;;;;;;;5201625;28;20459;-86
2022/11/03 10:29:32;;;;;;;4.15;3.85;;;;;;;;;;5219548;28;20468;-86
2022/11/03 10:32:03;;;;;;;4.78;3.42;;;;;;;;;;5219268;28;20024;-87
2022/11/03 10:34:35;;;;;;;10.32;3.95;;;;;;;;;;5218362;28;20041;-86
2022/11/03 10:37:10;;;;;;;8.23;3.28;;;;;;;;;;5201752;28;20022;-87
2022/11/03 10:39:40;;;;;;;4.25;3.47;;;;;;;;;;5201913;28;20049;-85
2022/11/03 10:42:16;;;;;;;5.50;3.60;;;;;;;;;;5202318;28;20017;-86
2022/11/03 10:44:46;;;;;;;6.50;2.47;;;;;;;;;;5219171;28;20319;-87
2022/11/03 10:47:33;;;;;;;3.30;2.42;;;;;;;;;;5221318;28;20013;-85
2022/11/03 10:50:23;;;;;;;7.50;4.60;;;;;;;;;;5202039;28;20047;-87
2022/11/03 10:52:53;;;;;;;4.03;3.30;;;;;;;;;;5218756;28;20049;-85
2022/11/03 10:55:24;;;;;;;2.45;2.35;;;;;;;;;;5201787;28;20060;-86
2022/11/03 10:57:56;;;;;;;3.00;2.83;;;;;;;;;;5218053;28;20062;-87
2022/11/03 11:00:26;;;;;;;3.95;3.40;;;;;;;;;;5218169;28;20022;-87
2022/11/03 11:02:58;;;;;;;3.40;3.13;;;;;;;;;;5218829;28;20041;-87
2022/11/03 11:05:28;;;;;;;6.28;3.05;;;;;;;;;;5201668;28;20014;-87
2022/11/03 11:07:59;;;;;;;9.02;3.25;;;;;;;;;;5205918;28;20021;-87
2022/11/03 11:10:30;;;;;;;2.78;2.42;;;;;;;;;;5202406;28;20037;-87
2022/11/03 11:13:01;;;;;;;2.90;2.38;;;;;;;;;;5205261;28;20021;-86
2022/11/03 11:15:34;;;;;;;3.30;3.08;;;;;;;;;;5221211;28;20024;-86
2022/11/03 11:18:05;;;;;;;3.60;3.35;;;;;;;;;;5221356;28;20095;-85
2022/11/03 11:20:42;;;;;;;2.42;2.25;;;;;;;;;;5221526;28;20025;-86
2022/11/03 11:23:36;;;;;;;3.13;2.83;;;;;;;;;;5203135;28;20026;-87
2022/11/03 11:26:09;;;;;;;3.22;3.00;;;;;;;;;;5195398;28;20025;-87
2022/11/03 11:28:41;;;;;;;3.95;3.47;;;;;;;;;;5203165;28;20017;-86
2022/11/03 11:31:30;;;;;;;4.30;2.38;;;;;;;;;;5202934;28;20096;-88
2022/11/03 11:34:17;;;;;;;4.70;3.53;;;;;;;;;;5202817;28;20085;-86
2022/11/03 11:36:53;;;;;;;6.68;3.10;;;;;;;;;;5202937;28;20029;-86
2022/11/03 11:39:26;;;;;;;5.35;2.85;;;;;;;;;;5202649;28;20033;-86
2022/11/03 11:42:03;;;;;;;4.53;2.40;;;;;;;;;;5202305;28;20025;-86
2022/11/03 11:44:39;;;;;;;3.00;2.75;;;;;;;;;;5202135;28;20017;-86
2022/11/03 11:47:27;;;;;;;6.35;3.63;;;;;;;;;;5204478;28;20021;-85
2022/11/03 11:50:04;;;;;;;3.80;3.55;;;;;;;;;;5205991;28;20026;-85
2022/11/03 11:52:38;;;;;;;7.95;2.70;;;;;;;;;;5203251;28;20103;-85
2022/11/03 11:55:16;;;;;;;3.60;2.97;;;;;;;;;;5220986;28;20014;-84
2022/11/03 11:57:46;;;;;;;4.05;2.92;;;;;;;;;;5222414;28;20390;-84
2022/11/03 12:00:21;;;;;;;3.28;3.00;;;;;;;;;;5222194;28;20041;-86
2022/11/03 12:02:52;;;;;;;3.45;2.55;;;;;;;;;;5222416;28;20025;-86
2022/11/03 12:05:25;;;;;;;3.17;2.97;;;;;;;;;;5221656;28;20100;-85
2022/11/03 12:07:55;;;;;;;4.57;3.03;;;;;;;;;;5223340;28;20049;-85
2022/11/03 12:10:27;;;;;;;4.00;3.45;;;;;;;;;;5225024;28;20076;-83
2022/11/03 12:12:58;;;;;;;9.05;3.95;;;;;;;;;;5208024;28;20029;-84
2022/11/03 12:15:50;;;;;;;8.90;2.83;;;;;;;;;;5224430;28;20051;-85
2022/11/03 12:18:27;;;;;;;4.45;2.83;;;;;;;;;;5221945;28;20100;-83
2022/11/03 12:20:57;;;;;;;4.03;3.17;;;;;;;;;;5203832;28;20017;-85
2022/11/03 12:23:35;;;;;;;2.50;2.28;;;;;;;;;;5203625;28;20025;-84
2022/11/03 12:26:13;;;;;;;3.42;3.17;;;;;;;;;;5222128;28;20029;-84
2022/11/03 12:28:44;;;;;;;4.78;2.50;;;;;;;;;;5221596;28;20017;-85
2022/11/03 12:31:14;;;;;;;5.40;4.15;;;;;;;;;;5203826;28;20549;-83
2022/11/03 12:33:44;;;;;;;6.53;3.50;;;;;;;;;;5221407;28;20017;-85
2022/11/03 12:36:15;;;;;;;3.13;2.92;;;;;;;;;;5221664;28;20480;-86
2022/11/03 12:38:46;;;;;;;4.90;3.70;;;;;;;;;;5221430;28;20025;-85
2022/11/03 12:41:25;;;;;;;4.35;4.00;;;;;;;;;;5204314;28;20037;-84
2022/11/03 12:43:56;;;;;;;3.60;3.20;;;;;;;;;;5203439;28;20047;-85
2022/11/03 12:46:26;;;;;;;4.25;3.63;;;;;;;;;;5221610;28;20041;-85
2022/11/03 12:48:56;;;;;;;3.10;2.90;;;;;;;;;;5203659;28;20436;-85
2022/11/03 12:51:26;;;;;;;3.58;3.38;;;;;;;;;;5221687;28;20025;-85
2022/11/03 12:53:57;;;;;;;2.60;2.50;;;;;;;;;;5204592;28;20048;-85
2022/11/03 12:56:27;;;;;;;5.28;4.03;;;;;;;;;;5223066;28;20081;-85
2022/11/03 12:58:57;;;;;;;5.35;3.45;;;;;;;;;;5221853;28;20009;-85
2022/11/03 13:01:28;;;;;;;4.95;2.80;;;;;;;;;;5203538;28;20017;-85
2022/11/03 13:03:59;;;;;;;4.93;4.13;;;;;;;;;;5203225;28;20028;-86
2022/11/03 13:06:29;;;;;;;3.42;2.75;;;;;;;;;;5222151;28;20021;-85
2022/11/03 13:08:59;;;;;;;4.25;3.90;;;;;;;;;;5220567;28;20069;-86
2022/11/03 13:14:18;;;;;;;2.83;2.63;;;;;;;;;;5221680;28;20323;-85
2022/11/03 13:16:49;;;;;;;7.10;4.65;;;;;;;;;;5204776;28;20017;-85
2022/11/03 13:19:19;;;;;;;2.70;2.65;;;;;;;;;;5222373;28;20025;-87
2022/11/03 13:21:49;;;;;;;3.50;3.20;;;;;;;;;;5222140;28;20017;-88
2022/11/03 13:24:19;;;;;;;2.80;2.70;;;;;;;;;;5222167;28;20017;-88
2022/11/03 13:26:50;;;;;;;3.15;3.03;;;;;;;;;;5204859;28;20052;-88
2022/11/03 13:29:20;;;;;;;6.18;3.42;;;;;;;;;;5204829;28;20056;-89
2022/11/03 13:31:50;;;;;;;3.58;3.33;;;;;;;;;;5223087;28;20045;-90
2022/11/03 13:34:21;;;;;;;5.35;4.10;;;;;;;;;;5205474;28;20464;-91
2022/11/03 13:36:51;;;;;;;3.22;3.03;;;;;;;;;;5224781;28;20029;-90
2022/11/03 13:39:21;;;;;;;4.50;4.05;;;;;;;;;;5206894;28;20029;-91
2022/11/03 13:41:52;;;;;;;5.15;3.15;;;;;;;;;;5224752;28;20020;-88
2022/11/03 13:44:22;;;;;;;8.07;3.78;;;;;;;;;;5205888;28;20080;-89
2022/11/03 13:46:52;;;;;;;4.10;3.88;;;;;;;;;;5223223;28;20479;-88
2022/11/03 13:49:23;;;;;;;4.15;3.72;;;;;;;;;;5223142;28;20136;-89
2022/11/03 13:51:54;;;;;;;11.30;5.43;;;;;;;;;;5223714;28;20021;-89
2022/11/03 13:54:24;;;;;;;5.63;5.07;;;;;;;;;;5218275;23;20033;-71
2022/11/03 13:56:55;;;;;;;5.05;3.17;;;;;;;;;;5202792;28;20044;-71
2022/11/03 13:59:26;;;;;;;5.60;3.22;;;;;;;;;;5202670;28;20515;-71
2022/11/03 14:01:56;;;;;;;4.05;3.65;;;;;;;;;;5202886;28;20481;-72
2022/11/03 14:04:26;;;;;;;3.97;3.30;;;;;;;;;;5202567;28;20022;-71
2022/11/03 14:06:57;;;;;;;5.05;4.60;;;;;;;;;;5203025;28;20397;-72
2022/11/03 14:09:27;;;;;;;3.88;3.67;;;;;;;;;;5201946;28;20053;-71
2022/11/03 14:14:46;;;;;;;7.10;3.42;;;;;;;;;;5198860;28;20032;-72
2022/11/03 14:17:16;;;;;;;2.90;2.80;;;;;;;;;;5185586;28;20021;-71
2022/11/03 14:19:47;;;;;;;3.75;3.10;;;;;;;;;;5184562;28;20067;-70
2022/11/03 14:22:18;;;;;;;4.82;4.18;;;;;;;;;;5185220;28;20100;-73
2022/11/03 14:24:49;;;;;;;4.00;3.72;;;;;;;;;;5184151;28;20108;-67
2022/11/03 14:27:19;;;;;;;4.53;4.13;;;;;;;;;;5184977;28;20128;-68
2022/11/03 14:29:49;;;;;;;4.35;3.58;;;;;;;;;;5186037;28;20029;-68
2022/11/03 14:32:20;;;;;;;4.18;3.85;;;;;;;;;;5186162;28;20477;-67
2022/11/03 14:34:50;;;;;;;4.07;3.78;;;;;;;;;;5185732;28;20033;-68
2022/11/03 14:37:24;;;;;;;4.35;4.10;;;;;;;;;;5186070;28;20025;-67
2022/11/03 14:39:54;;;;;;;4.32;3.92;;;;;;;;;;5185860;28;20021;-67
2022/11/03 14:42:24;;;;;;;3.88;3.28;;;;;;;;;;5185598;28;20497;-67
2022/11/03 14:44:54;;;;;;;5.07;3.13;;;;;;;;;;5185686;28;20562;-66
2022/11/03 14:47:25;;;;;;;6.65;4.40;;;;;;;;;;5185833;28;20453;-66
2022/11/03 14:49:55;;;;;;;4.28;3.95;;;;;;;;;;5186012;28;20065;-66
2022/11/03 14:52:25;;;;;;;5.20;4.07;;;;;;;;;;5185687;28;20049;-67
2022/11/03 14:54:56;;;;;;;4.95;4.53;;;;;;;;;;5203161;28;20034;-65
2022/11/03 14:57:26;;;;;;;3.90;3.58;;;;;;;;;;5185657;28;20069;-66
2022/11/03 14:59:56;;;;;;;3.97;3.67;;;;;;;;;;5203029;28;20052;-66
2022/11/03 15:02:27;;;;;;;6.25;4.57;;;;;;;;;;5203607;28;20152;-66
2022/11/03 15:04:57;;;;;;;4.45;4.05;;;;;;;;;;5185301;28;20030;-66
2022/11/03 15:07:33;;;;;;;2.97;2.88;;;;;;;;;;5184528;28;20026;-69
2022/11/03 15:10:04;;;;;;;3.92;3.63;;;;;;;;;;5185443;28;20477;-66
2022/11/03 15:12:34;;;;;;;9.30;3.70;;;;;;;;;;5184221;28;20024;-68
2022/11/03 15:15:05;;;;;;;4.97;3.60;;;;;;;;;;5203107;28;20040;-65
2022/11/03 15:17:35;;;;;;;5.10;4.20;;;;;;;;;;5201206;28;20076;-67
2022/11/03 15:20:06;;;;;;;3.65;3.42;;;;;;;;;;5184538;28;20025;-66
2022/11/03 15:22:36;;;;;;;4.75;3.92;;;;;;;;;;5188598;28;20049;-66
2022/11/03 15:25:07;;;;;;;3.78;3.50;;;;;;;;;;5189263;28;20449;-68
2022/11/03 15:27:37;;;;;;;5.35;4.80;;;;;;;;;;5189370;28;20087;-65
2022/11/03 15:30:08;;;;;;;4.38;3.97;;;;;;;;;;5189314;28;20167;-67
2022/11/03 15:32:38;;;;;;;4.43;4.13;;;;;;;;;;5189716;28;20014;-67
2022/11/03 15:35:09;;;;;;;5.05;4.65;;;;;;;;;;5188763;28;20029;-68
2022/11/03 15:37:39;;;;;;;4.57;4.32;;;;;;;;;;5189244;28;20009;-69